createdAt,value
2023-04-30T00:00:51.967Z,2.92
2023-04-30T00:03:21.576Z,3.19
2023-04-30T00:05:51.889Z,3.64
2023-04-30T00:08:28.758Z,4.02
2023-04-30T00:10:56.863Z,3.72
2023-04-30T00:13:25.108Z,3.77
2023-04-30T00:15:53.223Z,3.87
2023-04-30T00:18:24.056Z,4.02
2023-04-30T00:20:53.567Z,3.93
2023-04-30T00:23:21.560Z,3.69
2023-04-30T00:25:51.992Z,3.40
2023-04-30T00:28:19.835Z,3.19
2023-04-30T00:30:47.775Z,3.68
2023-04-30T00:33:16.355Z,3.31
2023-04-30T00:35:45.929Z,3.04
2023-04-30T00:38:14.366Z,3.10
2023-04-30T00:40:43.350Z,2.70
2023-04-30T00:43:11.648Z,2.79
2023-04-30T00:45:40.012Z,2.55
2023-04-30T00:48:08.685Z,2.88
2023-04-30T00:50:37.926Z,2.80
2023-04-30T00:54:04.734Z,2.63
2023-04-30T00:56:38.169Z,2.46
2023-04-30T00:59:06.285Z,3.03
2023-04-30T01:01:43.684Z,3.18
2023-04-30T01:04:23.388Z,3.22
2023-04-30T01:06:52.590Z,2.95
2023-04-30T01:09:21.652Z,3.27
2023-04-30T01:12:01.957Z,3.10
2023-04-30T01:14:34.978Z,3.22
2023-04-30T01:17:13.918Z,2.71
2023-04-30T01:19:43.783Z,2.51
2023-04-30T01:22:24.861Z,2.49
2023-04-30T01:25:08.401Z,2.71
2023-04-30T01:28:09.824Z,3.05
2023-04-30T01:30:40.874Z,2.69
2023-04-30T01:33:11.154Z,2.86
2023-04-30T01:36:09.756Z,2.83
2023-04-30T01:38:57.392Z,3.02
2023-04-30T01:41:34.605Z,3.03
2023-04-30T01:44:18.132Z,3.17
2023-04-30T01:46:52.548Z,3.42
2023-04-30T01:49:28.340Z,3.37
2023-04-30T01:52:05.001Z,3.47
2023-04-30T01:54:46.292Z,3.09
2023-04-30T01:57:19.333Z,2.87
2023-04-30T01:59:53.908Z,2.45
2023-04-30T02:02:22.392Z,2.60
2023-04-30T02:04:50.665Z,2.57
2023-04-30T02:07:30.481Z,3.15
2023-04-30T02:09:58.886Z,2.87
2023-04-30T02:12:27.808Z,3.12
2023-04-30T02:14:57.121Z,2.96
2023-04-30T02:17:26.078Z,3.53
2023-04-30T02:19:55.753Z,3.28
2023-04-30T02:22:23.972Z,3.17
2023-04-30T02:24:53.750Z,3.20
2023-04-30T02:27:22.970Z,2.72
2023-04-30T02:29:52.059Z,2.37
2023-04-30T02:32:21.774Z,2.28
2023-04-30T02:34:50.038Z,2.09
2023-04-30T02:37:18.123Z,2.52
2023-04-30T02:39:46.303Z,2.74
2023-04-30T02:42:15.407Z,2.46
2023-04-30T02:44:43.680Z,3.24
2023-04-30T02:47:11.629Z,3.30
2023-04-30T02:49:42.612Z,3.68
2023-04-30T02:52:11.059Z,3.71
2023-04-30T02:54:40.361Z,3.40
2023-04-30T02:57:09.693Z,3.03
2023-04-30T02:59:38.818Z,2.77
2023-04-30T03:02:06.856Z,2.97
2023-04-30T03:04:34.886Z,2.88
2023-04-30T03:07:04.730Z,3.03
2023-04-30T03:09:33.058Z,3.09
2023-04-30T03:12:03.642Z,2.90
2023-04-30T03:14:31.785Z,2.71
2023-04-30T03:17:01.054Z,2.44
2023-04-30T03:19:30.399Z,2.37
2023-04-30T03:21:58.475Z,2.45
2023-04-30T03:24:27.944Z,2.56
2023-04-30T03:26:55.907Z,2.60
2023-04-30T03:29:24.068Z,3.06
2023-04-30T03:31:52.774Z,3.71
2023-04-30T03:34:21.142Z,3.58
2023-04-30T03:36:49.601Z,3.61
2023-04-30T03:39:17.776Z,3.75
2023-04-30T03:41:48.129Z,3.92
2023-04-30T03:44:16.470Z,3.67
2023-04-30T03:46:44.719Z,3.74
2023-04-30T03:49:13.009Z,3.65
2023-04-30T03:51:44.012Z,3.62
2023-04-30T03:54:12.007Z,3.73
2023-04-30T03:56:41.255Z,3.75
2023-04-30T03:59:10.731Z,3.57
2023-04-30T04:01:39.092Z,3.93
2023-04-30T04:04:10.455Z,4.11
2023-04-30T04:06:38.733Z,4.07
2023-04-30T04:09:09.540Z,4.29
2023-04-30T04:11:37.729Z,4.28
2023-04-30T04:14:05.806Z,4.17
2023-04-30T04:16:35.252Z,4.09
2023-04-30T04:19:04.670Z,4.00
2023-04-30T04:21:33.503Z,4.03
2023-04-30T04:24:08.282Z,3.99
2023-04-30T04:26:36.584Z,4.02
2023-04-30T04:29:05.204Z,4.17
2023-04-30T04:31:35.783Z,4.12
2023-04-30T04:34:06.018Z,4.10
2023-04-30T04:36:34.588Z,4.01
2023-04-30T04:39:03.088Z,3.92
2023-04-30T04:41:32.917Z,3.89
2023-04-30T04:44:01.916Z,3.76
2023-04-30T04:46:32.866Z,3.68
2023-04-30T04:49:02.393Z,3.60
2023-04-30T04:51:33.195Z,3.75
2023-04-30T04:54:02.080Z,4.23
2023-04-30T04:56:31.306Z,4.37
2023-04-30T04:59:00.490Z,4.67
2023-04-30T05:01:29.637Z,4.75
2023-04-30T05:03:58.197Z,4.86
2023-04-30T05:06:33.835Z,5.15
2023-04-30T05:09:06.801Z,5.22
2023-04-30T05:11:37.557Z,5.32
2023-04-30T05:14:16.786Z,5.42
2023-04-30T05:16:57.858Z,5.27
2023-04-30T05:19:28.972Z,5.44
2023-04-30T05:22:05.467Z,5.44
2023-04-30T05:24:34.484Z,5.76
2023-04-30T05:27:05.129Z,5.98
2023-04-30T05:29:40.178Z,6.13
2023-04-30T05:32:08.968Z,6.20
2023-04-30T05:34:38.076Z,6.34
2023-04-30T05:37:07.918Z,6.41
2023-04-30T05:39:36.382Z,6.42
2023-04-30T05:42:06.764Z,6.42
2023-04-30T05:44:35.922Z,6.51
2023-04-30T05:47:04.388Z,6.55
2023-04-30T05:49:35.784Z,6.75
2023-04-30T05:52:07.161Z,6.95
2023-04-30T05:54:35.107Z,7.12
2023-04-30T05:57:03.236Z,7.26
2023-04-30T05:59:31.588Z,7.82
2023-04-30T06:02:00.964Z,8.31
2023-04-30T06:04:30.162Z,8.68
2023-04-30T06:07:00.882Z,8.85
2023-04-30T06:09:30.434Z,9.35
2023-04-30T06:11:58.652Z,8.98
2023-04-30T06:14:27.716Z,8.65
2023-04-30T06:16:56.854Z,8.30
2023-04-30T06:19:30.723Z,7.88
2023-04-30T06:21:58.801Z,7.79
2023-04-30T06:24:27.686Z,7.82
2023-04-30T06:26:57.110Z,7.83
2023-04-30T06:29:25.714Z,8.05
2023-04-30T06:31:53.929Z,7.98
2023-04-30T06:34:21.943Z,8.30
2023-04-30T06:36:50.239Z,8.76
2023-04-30T06:39:21.089Z,9.08
2023-04-30T06:41:49.252Z,10.12
2023-04-30T06:44:19.297Z,10.07
2023-04-30T06:46:47.372Z,9.45
2023-04-30T06:49:16.604Z,9.17
2023-04-30T06:51:46.310Z,8.91
2023-04-30T06:54:14.509Z,9.02
2023-04-30T06:56:44.012Z,8.97
2023-04-30T06:59:12.350Z,9.69
2023-04-30T07:01:42.022Z,10.21
2023-04-30T07:04:10.059Z,10.64
2023-04-30T07:06:40.533Z,11.36
2023-04-30T07:09:09.094Z,10.97
2023-04-30T07:11:37.734Z,12.14
2023-04-30T07:14:05.831Z,11.64
2023-04-30T07:16:34.206Z,11.89
2023-04-30T07:19:06.362Z,11.72
2023-04-30T07:21:34.348Z,12.51
2023-04-30T07:24:02.374Z,12.54
2023-04-30T07:26:33.452Z,12.81
2023-04-30T07:29:03.915Z,13.20
2023-04-30T07:31:35.389Z,13.27
2023-04-30T07:34:05.975Z,13.89
2023-04-30T07:36:34.647Z,14.12
2023-04-30T07:39:03.866Z,13.53
2023-04-30T07:41:32.014Z,13.79
2023-04-30T07:44:00.323Z,13.61
2023-04-30T07:46:39.616Z,14.03
2023-04-30T07:49:09.096Z,13.65
2023-04-30T07:51:39.542Z,13.42
2023-04-30T07:54:08.858Z,14.21
2023-04-30T07:56:38.261Z,13.36
2023-04-30T07:59:06.234Z,13.91
2023-04-30T08:01:34.772Z,14.22
2023-04-30T08:04:02.823Z,14.77
2023-04-30T08:06:32.270Z,13.91
2023-04-30T08:09:00.690Z,13.28
2023-04-30T08:11:29.740Z,12.95
2023-04-30T08:13:57.733Z,13.28
2023-04-30T08:16:25.911Z,13.21
2023-04-30T08:18:53.876Z,12.83
2023-04-30T08:21:28.202Z,12.81
2023-04-30T08:23:57.522Z,12.86
2023-04-30T08:26:30.607Z,12.60
2023-04-30T08:29:05.010Z,12.91
2023-04-30T08:31:34.328Z,13.49
2023-04-30T08:34:02.396Z,13.55
2023-04-30T08:36:30.601Z,13.77
2023-04-30T08:39:03.189Z,13.85
2023-04-30T08:41:34.604Z,13.81
2023-04-30T08:44:04.766Z,13.51
2023-04-30T08:46:38.767Z,13.08
2023-04-30T08:49:08.420Z,13.42
2023-04-30T08:51:37.008Z,13.32
2023-04-30T08:54:06.534Z,13.25
2023-04-30T08:56:35.296Z,13.11
2023-04-30T08:59:03.379Z,13.39
2023-04-30T09:01:32.118Z,14.06
2023-04-30T09:04:00.285Z,14.02
2023-04-30T09:06:28.428Z,14.18
2023-04-30T09:08:56.503Z,14.85
2023-04-30T09:11:27.813Z,14.73
2023-04-30T09:13:57.531Z,14.30
2023-04-30T09:16:26.684Z,15.27
2023-04-30T09:18:56.802Z,15.09
2023-04-30T09:21:35.092Z,14.26
2023-04-30T09:24:05.692Z,14.26
2023-04-30T09:26:38.913Z,14.91
2023-04-30T09:29:08.861Z,15.16
2023-04-30T09:31:37.946Z,15.85
2023-04-30T09:34:11.641Z,15.79
2023-04-30T09:36:54.907Z,16.19
2023-04-30T09:39:24.560Z,16.46
2023-04-30T09:42:09.662Z,15.19
2023-04-30T09:44:43.355Z,15.01
2023-04-30T09:47:27.493Z,14.43
2023-04-30T09:49:57.106Z,14.59
2023-04-30T09:52:53.728Z,15.10
2023-04-30T09:55:30.897Z,15.34
2023-04-30T09:58:10.199Z,15.55
2023-04-30T10:00:41.224Z,16.40
2023-04-30T10:03:14.423Z,15.73
2023-04-30T10:05:48.679Z,17.18
2023-04-30T10:08:24.850Z,17.77
2023-04-30T10:13:46.945Z,18.53
2023-04-30T10:16:21.806Z,18.07
2023-04-30T10:18:54.130Z,18.86
2023-04-30T10:21:24.529Z,19.55
2023-04-30T10:23:54.352Z,18.54
2023-04-30T10:26:27.207Z,19.07
2023-04-30T10:29:01.421Z,19.20
2023-04-30T10:32:03.046Z,19.12
2023-04-30T10:34:44.290Z,17.92
2023-04-30T10:37:25.977Z,17.74
2023-04-30T10:39:55.456Z,17.21
2023-04-30T10:42:27.454Z,18.77
2023-04-30T10:45:04.046Z,19.63
2023-04-30T10:47:32.928Z,18.68
2023-04-30T10:50:05.300Z,19.02
2023-04-30T10:52:38.166Z,18.61
2023-04-30T10:55:07.762Z,18.53
2023-04-30T10:57:42.817Z,18.55
2023-04-30T11:00:27.475Z,19.26
2023-04-30T11:02:59.000Z,20.34
2023-04-30T11:05:38.743Z,20.62
2023-04-30T11:08:07.675Z,20.20
2023-04-30T11:10:36.769Z,20.70
2023-04-30T11:13:06.647Z,20.29
2023-04-30T11:15:41.877Z,19.95
2023-04-30T11:18:26.280Z,20.30
2023-04-30T11:20:54.668Z,19.14
2023-04-30T11:23:32.197Z,19.23
2023-04-30T11:26:08.949Z,19.92
2023-04-30T11:28:38.744Z,20.07
2023-04-30T11:31:08.589Z,20.72
2023-04-30T11:33:37.892Z,20.45
2023-04-30T11:36:06.830Z,20.23
2023-04-30T11:38:38.280Z,19.89
2023-04-30T11:41:06.568Z,19.48
2023-04-30T11:43:38.409Z,20.83
2023-04-30T11:46:11.326Z,20.24
2023-04-30T11:48:42.642Z,19.36
2023-04-30T11:51:17.739Z,20.04
2023-04-30T11:53:48.468Z,19.97
2023-04-30T11:56:21.442Z,20.00
2023-04-30T11:58:50.579Z,19.63
2023-04-30T12:01:21.095Z,20.03
2023-04-30T12:03:53.291Z,18.82
2023-04-30T12:06:27.640Z,19.64
2023-04-30T12:08:56.294Z,20.06
2023-04-30T12:11:26.226Z,19.43
2023-04-30T12:13:55.660Z,20.05
2023-04-30T12:16:26.605Z,20.16
2023-04-30T12:18:55.484Z,19.35
2023-04-30T12:21:24.114Z,20.08
2023-04-30T12:23:54.385Z,20.46
2023-04-30T12:26:23.416Z,20.01
2023-04-30T12:28:53.563Z,20.12
2023-04-30T12:31:22.002Z,19.82
2023-04-30T12:33:58.004Z,18.57
2023-04-30T12:36:37.084Z,19.77
2023-04-30T12:39:09.601Z,20.57
2023-04-30T12:41:49.886Z,19.58
2023-04-30T12:44:20.410Z,20.32
2023-04-30T12:46:49.817Z,20.91
2023-04-30T12:49:26.334Z,21.80
2023-04-30T12:51:59.577Z,21.23
2023-04-30T12:54:29.156Z,21.86
2023-04-30T12:57:04.848Z,20.92
2023-04-30T12:59:34.029Z,22.97
2023-04-30T13:02:10.142Z,21.92
2023-04-30T13:04:39.764Z,20.29
2023-04-30T13:07:10.228Z,21.38
2023-04-30T13:09:39.445Z,20.83
2023-04-30T13:12:07.855Z,20.48
2023-04-30T13:14:35.985Z,21.63
2023-04-30T13:17:05.921Z,21.76
2023-04-30T13:19:34.787Z,21.47
2023-04-30T13:22:04.175Z,21.89
2023-04-30T13:24:33.374Z,20.34
2023-04-30T13:27:02.834Z,20.49
2023-04-30T13:29:31.778Z,22.49
2023-04-30T13:31:59.790Z,23.12
2023-04-30T13:34:27.724Z,22.42
2023-04-30T13:36:56.202Z,21.92
2023-04-30T13:39:26.617Z,22.57
2023-04-30T13:41:54.552Z,22.28
2023-04-30T13:44:22.812Z,22.80
2023-04-30T13:46:50.909Z,22.27
2023-04-30T13:49:19.118Z,23.40
2023-04-30T13:51:47.042Z,24.38
2023-04-30T13:54:19.036Z,22.29
2023-04-30T13:56:48.779Z,20.81
2023-04-30T13:59:17.717Z,20.33
2023-04-30T14:01:48.760Z,21.39
2023-04-30T14:04:18.495Z,22.52
2023-04-30T14:10:35.489Z,21.37
2023-04-30T14:13:24.058Z,20.94
2023-04-30T14:15:57.259Z,21.09
2023-04-30T14:18:25.833Z,23.39
2023-04-30T14:20:55.885Z,23.79
2023-04-30T14:23:26.060Z,21.65
2023-04-30T14:25:54.631Z,21.12
2023-04-30T14:28:25.739Z,20.41
2023-04-30T14:30:54.626Z,21.26
2023-04-30T14:33:28.373Z,22.29
2023-04-30T14:35:56.453Z,21.83
2023-04-30T14:38:27.666Z,22.55
2023-04-30T14:41:03.288Z,22.76
2023-04-30T14:43:32.509Z,22.25
2023-04-30T14:46:00.953Z,22.28
2023-04-30T14:48:31.299Z,22.24
2023-04-30T14:51:00.187Z,22.29
2023-04-30T14:53:29.816Z,23.56
2023-04-30T14:56:00.537Z,23.33
2023-04-30T14:58:28.830Z,23.30
2023-04-30T15:01:00.737Z,24.59
2023-04-30T15:03:29.525Z,23.35
2023-04-30T15:05:58.089Z,22.11
2023-04-30T15:08:26.304Z,21.26
2023-04-30T15:10:55.085Z,22.57
2023-04-30T15:13:23.036Z,21.22
2023-04-30T15:15:51.296Z,22.00
2023-04-30T15:18:20.734Z,21.26
2023-04-30T15:20:48.613Z,22.37
2023-04-30T15:23:17.074Z,21.18
2023-04-30T15:25:45.191Z,22.09
2023-04-30T15:28:14.084Z,22.00
2023-04-30T15:30:42.609Z,20.60
2023-04-30T15:33:10.620Z,20.41
2023-04-30T15:35:41.664Z,20.91
2023-04-30T15:38:09.731Z,20.36
2023-04-30T15:40:37.912Z,19.91
2023-04-30T15:43:07.832Z,20.36
2023-04-30T15:45:40.231Z,20.91
2023-04-30T15:48:08.750Z,20.18
2023-04-30T15:50:37.469Z,20.91
2023-04-30T15:53:06.759Z,20.93
2023-04-30T15:55:35.079Z,20.51
2023-04-30T15:58:05.002Z,20.84
2023-04-30T16:00:33.878Z,22.30
2023-04-30T16:03:01.872Z,21.96
2023-04-30T16:05:31.557Z,22.40
2023-04-30T16:08:01.668Z,20.72
2023-04-30T16:10:31.379Z,20.90
2023-04-30T16:12:59.443Z,21.72
2023-04-30T16:15:27.705Z,21.76
2023-04-30T16:17:56.100Z,21.58
2023-04-30T16:20:24.383Z,20.71
2023-04-30T16:22:52.700Z,19.90
2023-04-30T16:25:21.207Z,19.94
2023-04-30T16:27:51.683Z,20.97
2023-04-30T16:30:19.966Z,20.32
2023-04-30T16:32:48.402Z,20.39
2023-04-30T16:35:16.921Z,19.93
2023-04-30T16:37:45.093Z,20.70
2023-04-30T16:40:14.178Z,21.29
2023-04-30T16:42:43.854Z,22.03
2023-04-30T16:45:17.214Z,20.57
2023-04-30T16:47:46.070Z,19.70
2023-04-30T16:50:14.157Z,19.26
2023-04-30T16:52:42.819Z,20.04
2023-04-30T16:55:14.180Z,19.28
2023-04-30T16:57:43.936Z,18.37
2023-04-30T17:00:17.717Z,18.39
2023-04-30T17:02:53.745Z,18.48
2023-04-30T17:05:22.675Z,18.74
2023-04-30T17:07:50.729Z,18.90
2023-04-30T17:10:21.430Z,18.31
2023-04-30T17:12:57.774Z,18.38
2023-04-30T17:15:27.302Z,17.67
2023-04-30T17:17:56.523Z,17.75
2023-04-30T17:20:35.590Z,17.56
2023-04-30T17:23:03.943Z,17.48
2023-04-30T17:25:32.577Z,17.31
2023-04-30T17:28:01.714Z,17.32
2023-04-30T17:30:36.128Z,17.20
2023-04-30T17:33:04.575Z,17.23
2023-04-30T17:35:33.917Z,17.56
2023-04-30T17:38:01.865Z,17.46
2023-04-30T17:40:31.451Z,17.13
2023-04-30T17:42:59.463Z,17.23
2023-04-30T17:45:28.979Z,17.11
2023-04-30T17:47:58.444Z,16.89
2023-04-30T17:50:27.739Z,16.87
2023-04-30T17:52:56.022Z,16.71
2023-04-30T17:55:25.662Z,17.16
2023-04-30T17:57:53.631Z,16.92
2023-04-30T18:00:21.819Z,17.11
2023-04-30T18:02:49.835Z,16.75
2023-04-30T18:05:19.380Z,16.46
2023-04-30T18:07:47.778Z,16.43
2023-04-30T18:10:15.814Z,16.25
2023-04-30T18:12:43.932Z,15.96
2023-04-30T18:15:15.360Z,15.86
2023-04-30T18:17:45.711Z,15.48
2023-04-30T18:20:14.916Z,15.37
2023-04-30T18:22:44.490Z,15.21
2023-04-30T18:25:13.218Z,15.20
2023-04-30T18:27:43.285Z,15.02
2023-04-30T18:30:14.993Z,14.79
2023-04-30T18:32:48.742Z,14.54
2023-04-30T18:35:28.705Z,14.57
2023-04-30T18:38:24.623Z,14.48
2023-04-30T18:40:55.768Z,14.22
2023-04-30T18:43:24.038Z,13.92
2023-04-30T18:45:52.530Z,13.63
2023-04-30T18:48:23.021Z,13.46
2023-04-30T18:50:51.363Z,13.26
2023-04-30T18:53:20.072Z,13.35
2023-04-30T18:55:50.873Z,13.47
2023-04-30T18:58:19.196Z,13.21
2023-04-30T19:00:47.409Z,12.90
2023-04-30T19:03:16.751Z,12.66
2023-04-30T19:05:44.881Z,12.46
2023-04-30T19:08:12.955Z,12.50
2023-04-30T19:10:41.134Z,12.46
2023-04-30T19:13:11.622Z,12.21
2023-04-30T19:15:43.464Z,12.22
2023-04-30T19:18:12.885Z,12.15
2023-04-30T19:20:42.911Z,12.08
2023-04-30T19:23:11.142Z,11.82
2023-04-30T19:25:40.191Z,11.63
2023-04-30T19:28:09.952Z,11.78
2023-04-30T19:30:39.565Z,11.66
2023-04-30T19:33:07.775Z,11.54
2023-04-30T19:35:36.382Z,11.79
2023-04-30T19:38:04.286Z,11.65
2023-04-30T19:40:32.338Z,11.78
2023-04-30T19:43:00.684Z,11.42
2023-04-30T19:45:31.048Z,11.35
2023-04-30T19:48:00.581Z,11.25
2023-04-30T19:50:28.438Z,11.28
2023-04-30T19:52:57.728Z,10.99
2023-04-30T19:55:26.761Z,11.01
2023-04-30T19:57:55.226Z,10.84
2023-04-30T20:00:23.715Z,10.66
2023-04-30T20:02:53.000Z,10.59
2023-04-30T20:05:22.783Z,10.34
2023-04-30T20:07:51.063Z,10.18
2023-04-30T20:10:19.714Z,10.16
2023-04-30T20:12:47.663Z,10.28
2023-04-30T20:15:15.922Z,10.04
2023-04-30T20:17:44.054Z,9.81
2023-04-30T20:20:14.243Z,9.78
2023-04-30T20:22:43.830Z,10.08
2023-04-30T20:25:12.286Z,9.82
2023-04-30T20:27:40.613Z,9.91
2023-04-30T20:30:10.485Z,9.87
2023-04-30T20:32:39.205Z,10.41
2023-04-30T20:35:10.048Z,10.11
2023-04-30T20:37:38.604Z,9.86
2023-04-30T20:40:11.837Z,10.06
2023-04-30T20:42:40.869Z,9.87
2023-04-30T20:45:11.458Z,9.84
2023-04-30T20:47:41.231Z,10.29
2023-04-30T20:50:09.887Z,10.42
2023-04-30T20:52:38.117Z,10.26
2023-04-30T20:55:06.864Z,10.06
2023-04-30T20:57:39.368Z,10.06
2023-04-30T21:00:10.059Z,10.03
2023-04-30T21:02:40.220Z,9.74
2023-04-30T21:05:10.291Z,9.60
2023-04-30T21:07:38.642Z,9.17
2023-04-30T21:10:09.167Z,9.40
2023-04-30T21:12:38.758Z,9.31
2023-04-30T21:15:07.770Z,9.11
2023-04-30T21:17:38.317Z,8.85
2023-04-30T21:20:12.958Z,8.66
2023-04-30T21:22:41.143Z,8.61
2023-04-30T21:25:24.568Z,8.45
2023-04-30T21:27:56.093Z,8.27
2023-04-30T21:30:33.107Z,8.08
2023-04-30T21:33:02.597Z,8.24
2023-04-30T21:35:33.212Z,8.36
2023-04-30T21:38:02.216Z,8.31
2023-04-30T21:40:33.663Z,8.22
2023-04-30T21:43:03.613Z,8.07
2023-04-30T21:45:33.372Z,7.82
2023-04-30T21:48:04.579Z,8.40
2023-04-30T21:50:33.544Z,8.17
2023-04-30T21:53:01.541Z,8.02
2023-04-30T21:55:30.042Z,8.00
2023-04-30T21:57:58.648Z,8.09
2023-04-30T22:00:28.254Z,7.98
2023-04-30T22:02:58.343Z,8.06
2023-04-30T22:05:26.385Z,7.77
2023-04-30T22:07:55.110Z,7.64
2023-04-30T22:10:27.219Z,7.41
2023-04-30T22:16:07.941Z,7.16
2023-04-30T22:18:36.033Z,7.11
2023-04-30T22:21:06.799Z,7.40
2023-04-30T22:23:34.982Z,7.35
2023-04-30T22:26:04.596Z,7.36
2023-04-30T22:28:32.664Z,7.87
2023-04-30T22:31:00.954Z,7.98
2023-04-30T22:33:30.389Z,8.02
2023-04-30T22:36:01.143Z,8.20
2023-04-30T22:38:29.232Z,8.21
2023-04-30T22:41:00.145Z,8.31
2023-04-30T22:43:30.631Z,8.29
2023-04-30T22:45:58.926Z,8.10
2023-04-30T22:48:28.274Z,8.29
2023-04-30T22:50:58.862Z,8.44
2023-04-30T22:53:52.296Z,8.60
2023-04-30T22:56:22.624Z,8.68
2023-04-30T22:59:03.233Z,8.44
2023-04-30T23:01:53.544Z,8.48
2023-04-30T23:04:24.658Z,8.56
2023-04-30T23:07:13.944Z,8.51
2023-04-30T23:09:43.129Z,8.38
2023-04-30T23:12:20.175Z,8.38
2023-04-30T23:14:55.280Z,8.39
2023-04-30T23:17:26.898Z,8.42
2023-04-30T23:19:56.196Z,8.17
2023-04-30T23:22:25.889Z,8.33
2023-04-30T23:24:57.124Z,8.36
2023-04-30T23:27:28.232Z,8.41
2023-04-30T23:29:57.517Z,8.53
2023-04-30T23:32:26.294Z,8.30
2023-04-30T23:34:55.472Z,8.23
2023-04-30T23:37:23.405Z,8.23
2023-04-30T23:39:52.923Z,8.35
2023-04-30T23:42:20.881Z,8.26
2023-04-30T23:44:48.797Z,8.27
2023-04-30T23:47:17.402Z,8.33
2023-04-30T23:49:46.132Z,8.11
2023-04-30T23:52:14.447Z,8.17
2023-04-30T23:54:42.411Z,7.98
2023-04-30T23:57:11.860Z,8.05
2023-04-30T23:59:39.715Z,7.97
